GAF1511 WADD-WATO
Flight info
| Callsign | GAF1511 |
|---|---|
| Flight time | N/A |
| Altitude | 37000 |
| Route | DCT PEBGU W42 NMA W69 HUMAI HUMAI2A |
| Aircraft | A21N/M-SDE3FGHIRWY/LB1 |
Departure
| Time | 2026-05-08 07:45 |
|---|---|
| Airport | Denpasar I Gusti Ngurah Rai International Airport (WADD) |
Arrival
| Time | N/A |
|---|---|
| Airport | Komodo Airport (WATO) |
| Time | Latitude | Longitude | Altitude | Speed | Heading |
|---|---|---|---|---|---|
| 2026-05-08 07:40 | -8.74998 | 115.16927 | 19 ft | 0 kts | 274° |
| 2026-05-08 07:41 | -8.74997 | 115.16925 | 19 ft | 0 kts | 275° |
| 2026-05-08 07:41 | -8.74998 | 115.16914 | 19 ft | 2 kts | 266° |
| 2026-05-08 07:41 | -8.74999 | 115.16894 | 19 ft | 3 kts | 267° |
| 2026-05-08 07:41 | -8.75001 | 115.16859 | 19 ft | 7 kts | 267° |
| 2026-05-08 07:42 | -8.75004 | 115.16768 | 19 ft | 17 kts | 267° |
| 2026-05-08 07:42 | -8.75010 | 115.16647 | 19 ft | 17 kts | 267° |
| 2026-05-08 07:42 | -8.75009 | 115.16527 | 19 ft | 17 kts | 283° |
| 2026-05-08 07:42 | -8.74916 | 115.16474 | 19 ft | 16 kts | 355° |
| 2026-05-08 07:43 | -8.74831 | 115.16406 | 19 ft | 16 kts | 301° |
| 2026-05-08 07:43 | -8.74780 | 115.16305 | 19 ft | 16 kts | 309° |
| 2026-05-08 07:43 | -8.74697 | 115.16248 | 20 ft | 12 kts | 286° |
| 2026-05-08 07:43 | -8.74698 | 115.16153 | 18 ft | 14 kts | 267° |
| 2026-05-08 07:44 | -8.74702 | 115.16046 | 16 ft | 17 kts | 268° |
| 2026-05-08 07:44 | -8.74710 | 115.15877 | 15 ft | 31 kts | 266° |
| 2026-05-08 07:44 | -8.74721 | 115.15608 | 15 ft | 45 kts | 267° |
| 2026-05-08 07:44 | -8.74779 | 115.15395 | 15 ft | 26 kts | 188° |
| 2026-05-08 07:45 | -8.74887 | 115.15472 | 15 ft | 22 kts | 89° |
| 2026-05-08 07:45 | -8.74881 | 115.15741 | 16 ft | 76 kts | 88° |
| 2026-05-08 07:45 | -8.74850 | 115.16566 | 38 ft | 152 kts | 88° |
| 2026-05-08 07:45 | -8.74792 | 115.17591 | 948 ft | 148 kts | 89° |
| 2026-05-08 07:46 | -8.74756 | 115.18616 | 1842 ft | 151 kts | 89° |
| 2026-05-08 07:46 | -8.74723 | 115.19670 | 2663 ft | 156 kts | 88° |
| 2026-05-08 07:46 | -8.74683 | 115.20821 | 3240 ft | 173 kts | 88° |
| 2026-05-08 07:46 | -8.74636 | 115.22076 | 3817 ft | 190 kts | 88° |
| 2026-05-08 07:47 | -8.74580 | 115.23495 | 4354 ft | 214 kts | 87° |
| 2026-05-08 07:47 | -8.74517 | 115.25061 | 5019 ft | 234 kts | 87° |
| 2026-05-08 07:47 | -8.74448 | 115.26755 | 5702 ft | 252 kts | 87° |
| 2026-05-08 07:47 | -8.74374 | 115.28577 | 6412 ft | 270 kts | 87° |
| 2026-05-08 07:48 | -8.74296 | 115.30482 | 7347 ft | 278 kts | 87° |
| 2026-05-08 07:48 | -8.74215 | 115.32490 | 8198 ft | 282 kts | 86° |
| 2026-05-08 07:48 | -8.74133 | 115.34490 | 8735 ft | 285 kts | 86° |
| 2026-05-08 07:48 | -8.74049 | 115.36538 | 8986 ft | 287 kts | 86° |
| 2026-05-08 07:49 | -8.73965 | 115.38574 | 8995 ft | 287 kts | 86° |
| 2026-05-08 07:49 | -8.73864 | 115.41023 | 8997 ft | 287 kts | 86° |
| 2026-05-08 07:49 | -8.73780 | 115.43079 | 8998 ft | 287 kts | 86° |
| 2026-05-08 07:49 | -8.73696 | 115.45116 | 8998 ft | 287 kts | 86° |
| 2026-05-08 07:50 | -8.73612 | 115.47136 | 8998 ft | 287 kts | 86° |
| 2026-05-08 07:50 | -8.73519 | 115.49184 | 8997 ft | 286 kts | 84° |
| 2026-05-08 07:50 | -8.73000 | 115.51106 | 8989 ft | 285 kts | 62° |
| 2026-05-08 07:50 | -8.71793 | 115.52726 | 9000 ft | 285 kts | 46° |
| 2026-05-08 07:51 | -8.70388 | 115.54139 | 8999 ft | 285 kts | 44° |
| 2026-05-08 07:51 | -8.68935 | 115.55558 | 8999 ft | 285 kts | 44° |
| 2026-05-08 07:51 | -8.67501 | 115.56965 | 8998 ft | 285 kts | 44° |
| 2026-05-08 07:51 | -8.66073 | 115.58379 | 8998 ft | 285 kts | 44° |
| 2026-05-08 07:52 | -8.64636 | 115.59811 | 8998 ft | 285 kts | 45° |
| 2026-05-08 07:52 | -8.63214 | 115.61233 | 8998 ft | 285 kts | 45° |
| 2026-05-08 07:52 | -8.61799 | 115.62651 | 8998 ft | 285 kts | 45° |
| 2026-05-08 07:52 | -8.60382 | 115.64072 | 8998 ft | 285 kts | 45° |
| 2026-05-08 07:53 | -8.58958 | 115.65500 | 8998 ft | 285 kts | 45° |
| 2026-05-08 07:53 | -8.57526 | 115.66935 | 8998 ft | 285 kts | 45° |
| 2026-05-08 07:53 | -8.56104 | 115.68385 | 8996 ft | 285 kts | 49° |
| 2026-05-08 07:53 | -8.55126 | 115.70119 | 8990 ft | 286 kts | 73° |
| 2026-05-08 07:54 | -8.54909 | 115.72168 | 9282 ft | 296 kts | 89° |
| 2026-05-08 07:54 | -8.54945 | 115.74293 | 10339 ft | 299 kts | 90° |
| 2026-05-08 07:54 | -8.54992 | 115.76400 | 11254 ft | 307 kts | 90° |
| 2026-05-08 07:54 | -8.55035 | 115.78634 | 11871 ft | 325 kts | 90° |
| 2026-05-08 07:55 | -8.55074 | 115.80993 | 12721 ft | 335 kts | 90° |
| 2026-05-08 07:55 | -8.55109 | 115.83379 | 13704 ft | 339 kts | 90° |
| 2026-05-08 07:55 | -8.55142 | 115.85773 | 14663 ft | 343 kts | 90° |
| 2026-05-08 07:55 | -8.55171 | 115.88199 | 15593 ft | 347 kts | 90° |
| 2026-05-08 07:56 | -8.55199 | 115.90672 | 16510 ft | 351 kts | 90° |
| 2026-05-08 07:56 | -8.55227 | 115.93153 | 17400 ft | 355 kts | 90° |
| 2026-05-08 07:56 | -8.55257 | 115.95685 | 18282 ft | 360 kts | 90° |
| 2026-05-08 07:56 | -8.55285 | 115.98216 | 19137 ft | 364 kts | 90° |
| 2026-05-08 07:57 | -8.55313 | 116.00803 | 19982 ft | 368 kts | 90° |
| 2026-05-08 07:57 | -8.55323 | 116.01697 | 20269 ft | 369 kts | 90° |
| 2026-05-08 07:58 | -8.55456 | 116.13926 | 23826 ft | 387 kts | 90° |
| 2026-05-08 07:58 | -8.55486 | 116.16722 | 24537 ft | 391 kts | 90° |
| 2026-05-08 07:58 | -8.55516 | 116.19501 | 25212 ft | 395 kts | 90° |
| 2026-05-08 07:59 | -8.55546 | 116.22319 | 25862 ft | 398 kts | 90° |
| 2026-05-08 07:59 | -8.55556 | 116.23261 | 26071 ft | 400 kts | 90° |